Grandeur Of The Seas — C6SE3 — position and weather

sailwx.info

Track history (hours):
 
Tides and Currents Weather Stations Pressure Air Temp Water Temp Dewpoint Dewpoint Depression Visibility Wind Speed Wind Dir Waves Ship Positions

Grandeur Of The Seas

Operator: Royal Caribbean Cruises Ltd

Last reported at 2017-Aug-20 05:29 UTC. Time now 2017-Aug-22 22:27 UTC.
Position N 36°52' W 075°52'.

Type: Passenger vessel. MMSI: 311315000.

Date/timePositionNaut miles runAvg speedWind from/ knotsBaromVisibWave heightAir tempDewpointWater temp
2017-Aug-20 05:29N 36°52' W 075°52'816.2
2017-Aug-20 05:00N 36°57' W 075°59'713.9
2017-Aug-20 04:30N 37°03' W 076°04'918.8
2017-Aug-20 04:00N 37°11' W 076°09'918.4
2017-Aug-20 03:30N 37°20' W 076°06'8118.3
2017-Aug-19 23:04N 38°40' W 076°25'320.1
2017-Aug-19 22:56N 38°42' W 076°26'819.9
2017-Aug-19 22:30N 38°51' W 076°24'1018.9
2017-Aug-19 21:57N 39°01' W 076°23'715.2
2017-Aug-19 21:30N 39°08' W 076°24'612.3
2017-Aug-19 20:59N 39°12' W 076°30'5 9.7
2017-Aug-19 20:30N 39°15' W 076°34'1 2.7
2017-Aug-19 20:00N 39°16' W 076°36'0 0.0
2017-Aug-19 19:22N 39°16' W 076°36'0 0.0
2017-Aug-19 18:43N 39°16' W 076°36'0 0.0
2017-Aug-19 18:28N 39°16' W 076°36'0 0.0
2017-Aug-19 17:52N 39°16' W 076°36'0 0.0
2017-Aug-19 17:28N 39°16' W 076°36'0 0.0
2017-Aug-19 16:58N 39°16' W 076°36'0 0.0
2017-Aug-19 16:28N 39°16' W 076°36'0 0.0
2017-Aug-19 15:55N 39°16' W 076°36'0 0.0
2017-Aug-19 15:25N 39°16' W 076°36'0 0.0
2017-Aug-19 14:55N 39°16' W 076°36'0 0.0
2017-Aug-19 13:58N 39°16' W 076°36'0 0.0
2017-Aug-19 13:28N 39°16' W 076°36'0 0.0
2017-Aug-19 12:58N 39°16' W 076°36'0 0.0
2017-Aug-19 12:28N 39°16' W 076°36'0 0.0
2017-Aug-19 11:58N 39°16' W 076°36'0 0.0
2017-Aug-19 11:28N 39°16' W 076°36'0 0.0
2017-Aug-19 10:58N 39°16' W 076°36'1 2.0
2017-Aug-19 10:30N 39°15' W 076°35'4 8.1
2017-Aug-19 10:00N 39°12' W 076°31'510.6
2017-Aug-19 09:30N 39°10' W 076°25'612.9
2017-Aug-19 09:00N 39°03' W 076°23'713.7
2017-Aug-19 08:31N 38°57' W 076°23'917.8
2017-Aug-19 08:01N 38°48' W 076°25'917.4
2017-Aug-19 07:31N 38°39' W 076°25'3417.5
2017-Aug-19 05:34N 38°06' W 076°13'6215.9
2017-Aug-19 01:40N 37°05' W 076°06'317.4
2017-Aug-19 01:29N 37°02' W 076°04'816.4
2017-Aug-19 01:00N 36°56' W 075°57'713.4
2017-Aug-19 00:30N 36°52' W 075°51'  
2017-Aug-11 10:07N 36°18' W 074°25'217.8
2017-Aug-11 10:01N 36°19' W 074°27'917.9
2017-Aug-11 09:31N 36°23' W 074°37'917.7
2017-Aug-11 09:00N 36°27' W 074°47'917.5
2017-Aug-11 08:28N 36°31' W 074°58'917.6
2017-Aug-11 07:58N 36°34' W 075°08'817.6
2017-Aug-11 07:30N 36°38' W 075°17'817.4
2017-Aug-11 07:00N 36°42' W 075°27'917.1
2017-Aug-11 06:30N 36°45' W 075°37'816.6
2017-Aug-11 06:00N 36°49' W 075°46'815.8
2017-Aug-11 05:30N 36°53' W 075°54'713.1
2017-Aug-11 05:00N 36°58' W 075°60'714.4
2017-Aug-11 04:30N 37°04' W 076°05'816.0
2017-Aug-11 04:00N 37°11' W 076°09'1917.3
2017-Aug-11 02:55N 37°29' W 076°03'8418.7
2017-Aug-10 22:26N 38°51' W 076°24'919.2
2017-Aug-10 21:59N 39°00' W 076°23'814.7
2017-Aug-10 21:27N 39°08' W 076°24'512.2
2017-Aug-10 21:01N 39°12' W 076°29'611.1
2017-Aug-10 20:31N 39°15' W 076°34'1 2.6
2017-Aug-10 20:01N 39°16' W 076°36'0 0.0
2017-Aug-10 19:29N 39°16' W 076°36'0 0.0
2017-Aug-10 19:00N 39°16' W 076°36'0 0.0
2017-Aug-10 18:27N 39°16' W 076°36'0 0.0
2017-Aug-10 18:00N 39°16' W 076°36'0 0.0
2017-Aug-10 17:30N 39°16' W 076°36'0 0.0
2017-Aug-10 16:59N 39°16' W 076°36'0 0.0
2017-Aug-10 16:30N 39°16' W 076°36'0 0.0
2017-Aug-10 15:51N 39°16' W 076°36'0 0.0
2017-Aug-10 15:30N 39°16' W 076°36'0 0.0
2017-Aug-10 15:00N 39°16' W 076°36'0 0.0
2017-Aug-10 14:30N 39°16' W 076°36'0 0.0
2017-Aug-10 13:57N 39°16' W 076°36'0 0.0
2017-Aug-10 13:30N 39°16' W 076°36'0 0.0
2017-Aug-10 13:00N 39°16' W 076°36'0 0.0
2017-Aug-10 12:30N 39°16' W 076°36'0 0.0
2017-Aug-10 11:57N 39°16' W 076°36'0 0.0
2017-Aug-10 11:30N 39°16' W 076°36'0 0.0
2017-Aug-10 11:00N 39°16' W 076°36'3 3.8
2017-Aug-10 10:20N 39°14' W 076°33'2 5.7
2017-Aug-10 09:57N 39°13' W 076°31'510.4
2017-Aug-10 09:31N 39°11' W 076°26'714.0
2017-Aug-10 09:00N 39°04' W 076°24'815.6
2017-Aug-10 08:30N 38°56' W 076°24'816.1
2017-Aug-10 08:00N 38°48' W 076°25'1016.4
2017-Aug-10 07:24N 38°38' W 076°25'716.1
2017-Aug-10 06:58N 38°31' W 076°25'816.8
2017-Aug-10 06:30N 38°24' W 076°21'714.1
2017-Aug-10 06:00N 38°17' W 076°18'816.7
2017-Aug-10 05:30N 38°10' W 076°14'  
Track history (hours):
 
Tides and Currents Weather Stations Pressure Air Temp Water Temp Dewpoint Dewpoint Depression Visibility Wind Speed Wind Dir Waves Ship Positions

Grandeur Of The Seas

Operator: Royal Caribbean Cruises Ltd

Last reported at 2017-Aug-20 05:29 UTC. Time now 2017-Aug-22 22:27 UTC.
Position N 36°52' W 075°52'.

Type: Passenger vessel. MMSI: 311315000.

Date/timePositionNaut miles runAvg speedWind from/ knotsBaromVisibWave heightAir tempDewpointWater temp
2017-Aug-20 05:29N 36°52' W 075°52'816.2
2017-Aug-20 05:00N 36°57' W 075°59'713.9
2017-Aug-20 04:30N 37°03' W 076°04'918.8
2017-Aug-20 04:00N 37°11' W 076°09'918.4
2017-Aug-20 03:30N 37°20' W 076°06'8118.3
2017-Aug-19 23:04N 38°40' W 076°25'320.1
2017-Aug-19 22:56N 38°42' W 076°26'819.9
2017-Aug-19 22:30N 38°51' W 076°24'1018.9
2017-Aug-19 21:57N 39°01' W 076°23'715.2
2017-Aug-19 21:30N 39°08' W 076°24'612.3
2017-Aug-19 20:59N 39°12' W 076°30'5 9.7
2017-Aug-19 20:30N 39°15' W 076°34'1 2.7
2017-Aug-19 20:00N 39°16' W 076°36'0 0.0
2017-Aug-19 19:22N 39°16' W 076°36'0 0.0
2017-Aug-19 18:43N 39°16' W 076°36'0 0.0
2017-Aug-19 18:28N 39°16' W 076°36'0 0.0
2017-Aug-19 17:52N 39°16' W 076°36'0 0.0
2017-Aug-19 17:28N 39°16' W 076°36'0 0.0
2017-Aug-19 16:58N 39°16' W 076°36'0 0.0
2017-Aug-19 16:28N 39°16' W 076°36'0 0.0
2017-Aug-19 15:55N 39°16' W 076°36'0 0.0
2017-Aug-19 15:25N 39°16' W 076°36'0 0.0
2017-Aug-19 14:55N 39°16' W 076°36'0 0.0
2017-Aug-19 13:58N 39°16' W 076°36'0 0.0
2017-Aug-19 13:28N 39°16' W 076°36'0 0.0
2017-Aug-19 12:58N 39°16' W 076°36'0 0.0
2017-Aug-19 12:28N 39°16' W 076°36'0 0.0
2017-Aug-19 11:58N 39°16' W 076°36'0 0.0
2017-Aug-19 11:28N 39°16' W 076°36'0 0.0
2017-Aug-19 10:58N 39°16' W 076°36'1 2.0
2017-Aug-19 10:30N 39°15' W 076°35'4 8.1
2017-Aug-19 10:00N 39°12' W 076°31'510.6
2017-Aug-19 09:30N 39°10' W 076°25'612.9
2017-Aug-19 09:00N 39°03' W 076°23'713.7
2017-Aug-19 08:31N 38°57' W 076°23'917.8
2017-Aug-19 08:01N 38°48' W 076°25'917.4
2017-Aug-19 07:31N 38°39' W 076°25'3417.5
2017-Aug-19 05:34N 38°06' W 076°13'6215.9
2017-Aug-19 01:40N 37°05' W 076°06'317.4
2017-Aug-19 01:29N 37°02' W 076°04'816.4
2017-Aug-19 01:00N 36°56' W 075°57'713.4
2017-Aug-19 00:30N 36°52' W 075°51'  
2017-Aug-11 10:07N 36°18' W 074°25'217.8
2017-Aug-11 10:01N 36°19' W 074°27'917.9
2017-Aug-11 09:31N 36°23' W 074°37'917.7
2017-Aug-11 09:00N 36°27' W 074°47'917.5
2017-Aug-11 08:28N 36°31' W 074°58'917.6
2017-Aug-11 07:58N 36°34' W 075°08'817.6
2017-Aug-11 07:30N 36°38' W 075°17'817.4
2017-Aug-11 07:00N 36°42' W 075°27'917.1
2017-Aug-11 06:30N 36°45' W 075°37'816.6
2017-Aug-11 06:00N 36°49' W 075°46'815.8
2017-Aug-11 05:30N 36°53' W 075°54'713.1
2017-Aug-11 05:00N 36°58' W 075°60'714.4
2017-Aug-11 04:30N 37°04' W 076°05'816.0
2017-Aug-11 04:00N 37°11' W 076°09'1917.3
2017-Aug-11 02:55N 37°29' W 076°03'8418.7
2017-Aug-10 22:26N 38°51' W 076°24'919.2
2017-Aug-10 21:59N 39°00' W 076°23'814.7
2017-Aug-10 21:27N 39°08' W 076°24'512.2
2017-Aug-10 21:01N 39°12' W 076°29'611.1
2017-Aug-10 20:31N 39°15' W 076°34'1 2.6
2017-Aug-10 20:01N 39°16' W 076°36'0 0.0
2017-Aug-10 19:29N 39°16' W 076°36'0 0.0
2017-Aug-10 19:00N 39°16' W 076°36'0 0.0
2017-Aug-10 18:27N 39°16' W 076°36'0 0.0
2017-Aug-10 18:00N 39°16' W 076°36'0 0.0
2017-Aug-10 17:30N 39°16' W 076°36'0 0.0
2017-Aug-10 16:59N 39°16' W 076°36'0 0.0
2017-Aug-10 16:30N 39°16' W 076°36'0 0.0
2017-Aug-10 15:51N 39°16' W 076°36'0 0.0
2017-Aug-10 15:30N 39°16' W 076°36'0 0.0
2017-Aug-10 15:00N 39°16' W 076°36'0 0.0
2017-Aug-10 14:30N 39°16' W 076°36'0 0.0
2017-Aug-10 13:57N 39°16' W 076°36'0 0.0
2017-Aug-10 13:30N 39°16' W 076°36'0 0.0
2017-Aug-10 13:00N 39°16' W 076°36'0 0.0
2017-Aug-10 12:30N 39°16' W 076°36'0 0.0
2017-Aug-10 11:57N 39°16' W 076°36'0 0.0
2017-Aug-10 11:30N 39°16' W 076°36'0 0.0
2017-Aug-10 11:00N 39°16' W 076°36'3 3.8
2017-Aug-10 10:20N 39°14' W 076°33'2 5.7
2017-Aug-10 09:57N 39°13' W 076°31'510.4
2017-Aug-10 09:31N 39°11' W 076°26'714.0
2017-Aug-10 09:00N 39°04' W 076°24'815.6
2017-Aug-10 08:30N 38°56' W 076°24'816.1
2017-Aug-10 08:00N 38°48' W 076°25'1016.4
2017-Aug-10 07:24N 38°38' W 076°25'716.1
2017-Aug-10 06:58N 38°31' W 076°25'816.8
2017-Aug-10 06:30N 38°24' W 076°21'714.1
2017-Aug-10 06:00N 38°17' W 076°18'816.7
2017-Aug-10 05:30N 38°10' W 076°14'  

Dump ship's entire track history